Airfield :
LOGIN :

Register | Disclaimer

   EN    FR    IT 

 










Legend :    VFR   Marginal VFR   IFR   Intensive IFR   Very Intensive IFR
Visi :
Ceiling :
>= 8 km
>= 3000ft
5 to 8 km
1000 to 3000 ft
1500m to 5 km
500 to 1000 ft
800 to 1500m
200 to 500 ft
< 800m
< 200 ft
Symbols :   Thunderstorms  Fog  Heavy snow  Heavy precipitations  Wind > 20 kt
SIGMETs :     Misc.  Thunderstorms  Icing  Turbulence  Mountain Waves  Volcanic Ashes






- Airport Elevation : 29 ft
- IATA code : SVG


ENZV - Sola

CURRENT METAR :
  • 170250Z AUTO 11006KT 9999 -RA FEW000/// BKN041/// BKN053/// 11/09 Q1004

EXPIRED METARs :
  • 170220Z AUTO 11005KT 9999 -RA FEW000/// OVC057/// 11/09 Q1004
  • 170150Z AUTO 12006KT 9999 -RA FEW000/// SCT039/// BKN051/// 12/09 Q1004
  • 170120Z 11006KT 9999 -RA FEW000 BKN047 OVC059 12/10 Q1004
  • 170050Z 10003KT 9999 -DZ BKN049 12/11 Q1004
  • 170020Z 08003KT 9999 SCT049 BKN066 12/11 Q1004 RERA
  • 162350Z 13002KT 9999 -RA FEW049 BKN066 12/10 Q1004
  • 162320Z AUTO 12003KT 9999 SCT051/// BKN064/// 13/10 Q1004 RERA
  • 162250Z AUTO 10004KT 9999 -RA BKN053/// 13/10 Q1004
  • 162220Z 10004KT 9999 -RA BKN055 13/10 Q1005

TAF TAF ENZV
Valid from the 17 at 00:00 until the 18 at 00:00 UTC


162300Z 1700/1724 10008KT 9999 -SHRA FEW025TCU BKN040
TEMPO 1700/1724 SHRA BKN008 SCT020CB
BECMG 1704/1706 17012KT
PROB30
TEMPO 1714/1720 TSGS



MET'MAP, your aeronautical weather chart ! - Copyright ORBIFLY December 2007 - Disclaimer

ORBIFLY MET'MAP TEAM :

Programming & Development : Alexandra Zaïnal
Original concept : Baudouin d'Aumeries
Technical & hardware support : Manuel Goepfert
Assistance : Marc-Olivier Méhu




SOURCES & CREDITS :

   NOAA